createdAt,value
2023-08-07T00:01:19.648Z,47.91
2023-08-07T00:03:46.340Z,47.77
2023-08-07T00:06:12.996Z,47.79
2023-08-07T00:08:39.581Z,47.40
2023-08-07T00:11:07.703Z,47.62
2023-08-07T00:13:34.327Z,47.68
2023-08-07T00:16:03.528Z,47.37
2023-08-07T00:18:30.784Z,47.81
2023-08-07T00:20:57.390Z,47.71
2023-08-07T00:23:24.017Z,47.65
2023-08-07T00:25:50.701Z,47.45
2023-08-07T00:28:17.268Z,47.81
2023-08-07T00:30:43.875Z,47.26
2023-08-07T00:33:10.671Z,47.60
2023-08-07T00:35:37.255Z,47.29
2023-08-07T00:38:04.356Z,47.96
2023-08-07T00:40:38.613Z,47.69
2023-08-07T00:43:05.269Z,47.57
2023-08-07T00:45:36.479Z,47.86
2023-08-07T00:48:03.940Z,47.77
2023-08-07T00:50:46.142Z,47.71
2023-08-07T00:53:13.921Z,47.67
2023-08-07T00:55:40.535Z,47.58
2023-08-07T00:58:07.139Z,47.84
2023-08-07T01:00:33.722Z,47.77
2023-08-07T01:03:00.792Z,47.75
2023-08-07T01:05:27.621Z,47.53
2023-08-07T01:07:55.952Z,47.56
2023-08-07T01:10:41.402Z,47.58
2023-08-07T01:13:39.419Z,47.61
2023-08-07T01:16:15.213Z,47.81
2023-08-07T01:18:42.315Z,47.68
2023-08-07T01:21:18.460Z,47.56
2023-08-07T01:23:45.448Z,47.31
2023-08-07T01:26:12.020Z,47.35
2023-08-07T01:28:43.759Z,47.68
2023-08-07T01:31:13.339Z,47.70
2023-08-07T01:33:58.228Z,47.54
2023-08-07T01:36:27.485Z,47.69
2023-08-07T01:38:54.222Z,47.39
2023-08-07T01:41:20.880Z,47.85
2023-08-07T01:43:47.463Z,47.90
2023-08-07T01:46:14.507Z,47.87
2023-08-07T01:48:41.105Z,47.87
2023-08-07T01:51:07.700Z,47.67
2023-08-07T01:53:34.285Z,47.63
2023-08-07T01:56:00.897Z,47.63
2023-08-07T01:58:27.638Z,47.70
2023-08-07T02:00:56.071Z,47.73
2023-08-07T02:03:22.775Z,47.47
2023-08-07T02:05:49.552Z,47.76
2023-08-07T02:08:16.207Z,47.66
2023-08-07T02:10:42.808Z,47.68
2023-08-07T02:13:09.441Z,47.88
2023-08-07T02:15:36.121Z,47.67
2023-08-07T02:18:02.808Z,47.77
2023-08-07T02:20:29.397Z,47.63
2023-08-07T02:22:55.978Z,48.02
2023-08-07T02:25:22.580Z,48.09
2023-08-07T02:27:49.243Z,47.70
2023-08-07T02:30:15.832Z,47.66
2023-08-07T02:32:44.287Z,47.92
2023-08-07T02:35:10.929Z,47.89
2023-08-07T02:37:37.514Z,47.67
2023-08-07T02:40:05.303Z,47.89
2023-08-07T02:42:31.901Z,48.02
2023-08-07T02:44:58.498Z,48.00
2023-08-07T02:47:25.158Z,48.09
2023-08-07T02:49:51.764Z,48.18
2023-08-07T02:52:18.358Z,48.02
2023-08-07T02:54:44.964Z,48.02
2023-08-07T02:57:11.561Z,48.05
2023-08-07T02:59:38.166Z,48.19
2023-08-07T03:02:04.966Z,48.31
2023-08-07T03:04:31.547Z,48.12
2023-08-07T03:06:58.339Z,48.16
2023-08-07T03:09:25.110Z,48.07
2023-08-07T03:11:51.944Z,48.20
2023-08-07T03:14:18.667Z,48.15
2023-08-07T03:16:46.653Z,48.20
2023-08-07T03:19:13.308Z,48.47
2023-08-07T03:21:40.031Z,48.40
2023-08-07T03:24:06.827Z,48.18
2023-08-07T03:26:34.216Z,47.92
2023-08-07T03:29:00.846Z,48.47
2023-08-07T03:31:27.424Z,48.24
2023-08-07T03:33:55.531Z,48.35
2023-08-07T03:36:23.014Z,48.82
2023-08-07T03:38:49.616Z,48.49
2023-08-07T03:41:16.191Z,48.52
2023-08-07T03:43:42.770Z,48.78
2023-08-07T03:46:09.447Z,48.34
2023-08-07T03:48:36.182Z,48.49
2023-08-07T03:51:04.253Z,48.85
2023-08-07T03:53:30.841Z,48.96
2023-08-07T03:55:57.484Z,48.70
2023-08-07T03:58:24.118Z,49.12
2023-08-07T04:00:52.300Z,48.74
2023-08-07T04:03:20.799Z,48.95
2023-08-07T04:05:47.411Z,48.92
2023-08-07T04:08:14.018Z,49.00
2023-08-07T04:10:40.665Z,48.86
2023-08-07T04:13:07.251Z,48.83
2023-08-07T04:15:33.901Z,48.76
2023-08-07T04:18:00.650Z,48.74
2023-08-07T04:20:27.300Z,48.99
2023-08-07T04:22:53.895Z,49.01
2023-08-07T04:25:20.544Z,48.33
2023-08-07T04:27:47.123Z,48.88
2023-08-07T04:30:13.756Z,48.67
2023-08-07T04:32:40.425Z,49.00
2023-08-07T04:35:07.558Z,49.07
2023-08-07T04:37:34.274Z,49.16
2023-08-07T04:40:01.917Z,49.15
2023-08-07T04:42:28.746Z,49.00
2023-08-07T04:44:55.387Z,49.10
2023-08-07T04:47:22.056Z,48.99
2023-08-07T04:49:48.961Z,49.31
2023-08-07T04:52:25.532Z,49.29
2023-08-07T04:54:53.433Z,49.05
2023-08-07T04:57:20.040Z,48.99
2023-08-07T04:59:46.662Z,49.05
2023-08-07T05:02:13.435Z,49.25
2023-08-07T05:04:40.111Z,49.21
2023-08-07T05:07:06.867Z,49.35
2023-08-07T05:09:33.477Z,49.23
2023-08-07T05:12:00.076Z,49.02
2023-08-07T05:14:26.851Z,48.99
2023-08-07T05:16:53.494Z,48.98
2023-08-07T05:19:20.144Z,49.31
2023-08-07T05:21:50.981Z,49.30
2023-08-07T05:24:20.479Z,49.17
2023-08-07T05:26:47.084Z,48.74
2023-08-07T05:29:13.717Z,49.07
2023-08-07T05:31:40.325Z,48.95
2023-08-07T05:34:07.653Z,49.32
2023-08-07T05:36:34.433Z,49.45
2023-08-07T05:39:01.026Z,49.05
2023-08-07T05:41:28.408Z,49.34
2023-08-07T05:43:54.995Z,49.31
2023-08-07T05:46:21.640Z,49.20
2023-08-07T05:48:48.320Z,49.27
2023-08-07T05:51:14.926Z,49.10
2023-08-07T05:53:42.292Z,49.24
2023-08-07T05:56:08.876Z,49.15
2023-08-07T05:58:35.500Z,49.04
2023-08-07T06:01:02.097Z,49.27
2023-08-07T06:03:29.253Z,49.62
2023-08-07T06:05:55.870Z,49.82
2023-08-07T06:08:22.493Z,49.46
2023-08-07T06:10:49.087Z,49.42
2023-08-07T06:13:26.585Z,49.39
2023-08-07T06:15:58.492Z,49.50
2023-08-07T06:18:25.878Z,49.71
2023-08-07T06:20:52.468Z,49.51
2023-08-07T06:23:19.056Z,49.53
2023-08-07T06:25:45.672Z,49.34
2023-08-07T06:28:12.490Z,49.10
2023-08-07T06:30:39.069Z,49.08
2023-08-07T06:33:05.721Z,49.53
2023-08-07T06:35:32.329Z,49.59
2023-08-07T06:37:59.030Z,49.62
2023-08-07T06:40:26.398Z,49.30
2023-08-07T06:42:53.029Z,49.13
2023-08-07T06:45:19.674Z,49.33
2023-08-07T06:47:46.287Z,49.34
2023-08-07T06:50:13.617Z,49.41
2023-08-07T06:52:40.218Z,49.38
2023-08-07T06:55:07.865Z,49.35
2023-08-07T06:57:35.779Z,49.68
2023-08-07T07:00:02.440Z,49.88
2023-08-07T07:02:29.060Z,49.39
2023-08-07T07:04:55.762Z,49.45
2023-08-07T07:07:22.340Z,49.59
2023-08-07T07:09:48.935Z,49.50
2023-08-07T07:12:15.561Z,48.97
2023-08-07T07:14:42.207Z,49.25
2023-08-07T07:17:08.953Z,49.42
2023-08-07T07:19:35.547Z,49.45
2023-08-07T07:22:02.219Z,49.15
2023-08-07T07:24:28.839Z,49.21
2023-08-07T07:26:55.480Z,49.87
2023-08-07T07:29:22.535Z,49.89
2023-08-07T07:31:49.238Z,49.60
2023-08-07T07:34:15.878Z,49.57
2023-08-07T07:36:42.564Z,49.97
2023-08-07T07:39:11.150Z,49.65
2023-08-07T07:41:37.737Z,49.54
2023-08-07T07:44:04.420Z,49.76
2023-08-07T07:46:32.728Z,49.52
2023-08-07T07:49:00.018Z,49.56
2023-08-07T07:51:27.529Z,49.66
2023-08-07T07:54:13.184Z,49.70
2023-08-07T07:56:40.717Z,49.82
2023-08-07T07:59:09.241Z,49.78
2023-08-07T08:01:36.874Z,49.75
2023-08-07T08:04:03.651Z,49.38
2023-08-07T08:06:31.738Z,49.20
2023-08-07T08:08:58.399Z,48.95
2023-08-07T08:11:25.007Z,48.92
2023-08-07T08:13:52.421Z,48.91
2023-08-07T08:16:19.173Z,48.88
2023-08-07T08:18:45.823Z,48.89
2023-08-07T08:21:12.446Z,48.65
2023-08-07T08:23:39.068Z,48.69
2023-08-07T08:26:06.122Z,48.69
2023-08-07T08:28:32.806Z,48.38
2023-08-07T08:30:59.446Z,48.53
2023-08-07T08:33:26.554Z,48.56
2023-08-07T08:35:53.142Z,48.68
2023-08-07T08:38:21.073Z,48.14
2023-08-07T08:40:47.978Z,48.34
2023-08-07T08:43:14.566Z,48.19
2023-08-07T08:45:42.110Z,48.32
2023-08-07T08:48:09.091Z,47.71
2023-08-07T08:50:36.701Z,47.73
2023-08-07T08:53:03.977Z,47.49
2023-08-07T08:55:31.052Z,47.95
2023-08-07T08:58:01.865Z,47.71
2023-08-07T09:00:30.726Z,47.74
2023-08-07T09:02:58.271Z,47.70
2023-08-07T09:05:24.866Z,47.60
2023-08-07T09:07:51.567Z,47.57
2023-08-07T09:10:18.334Z,47.77
2023-08-07T09:12:58.304Z,47.57
2023-08-07T09:15:26.201Z,47.93
2023-08-07T09:17:53.836Z,47.94
2023-08-07T09:20:20.788Z,47.49
2023-08-07T09:22:47.412Z,47.80
2023-08-07T09:25:14.483Z,47.50
2023-08-07T09:27:41.463Z,47.75
2023-08-07T09:30:11.461Z,47.45
2023-08-07T09:32:40.606Z,47.71
2023-08-07T09:35:07.945Z,47.54
2023-08-07T09:37:34.542Z,47.62
2023-08-07T09:40:02.520Z,47.63
2023-08-07T09:42:33.123Z,47.24
2023-08-07T09:45:01.738Z,47.40
2023-08-07T09:47:28.773Z,47.63
2023-08-07T09:49:56.367Z,47.70
2023-08-07T09:52:23.223Z,47.54
2023-08-07T09:54:49.846Z,47.29
2023-08-07T09:57:16.444Z,47.32
2023-08-07T09:59:43.068Z,47.43
2023-08-07T10:02:11.114Z,47.13
2023-08-07T10:04:37.738Z,47.25
2023-08-07T10:07:04.638Z,47.19
2023-08-07T10:09:31.591Z,46.92
2023-08-07T10:11:59.776Z,47.21
2023-08-07T10:14:26.818Z,47.00
2023-08-07T10:16:55.030Z,47.11
2023-08-07T10:19:21.882Z,46.91
2023-08-07T10:21:48.516Z,46.57
2023-08-07T10:24:16.083Z,46.78
2023-08-07T10:26:45.719Z,46.62
2023-08-07T10:29:14.834Z,46.25
2023-08-07T10:31:43.898Z,46.56
2023-08-07T10:34:10.654Z,46.31
2023-08-07T10:36:39.876Z,46.17
2023-08-07T10:39:11.043Z,46.05
2023-08-07T10:41:46.689Z,46.17
2023-08-07T10:44:20.620Z,45.92
2023-08-07T10:46:52.972Z,45.86
2023-08-07T10:49:38.701Z,45.91
2023-08-07T10:52:18.519Z,46.15
2023-08-07T10:54:51.639Z,46.25
2023-08-07T10:57:19.882Z,46.41
2023-08-07T11:00:05.436Z,46.30
2023-08-07T11:02:34.317Z,46.10
2023-08-07T11:05:01.720Z,46.43
2023-08-07T11:07:30.006Z,46.16
2023-08-07T11:09:57.536Z,46.14
2023-08-07T11:12:27.835Z,46.20
2023-08-07T11:14:58.060Z,46.69
2023-08-07T11:17:28.748Z,46.43
2023-08-07T11:19:56.432Z,46.40
2023-08-07T11:22:23.576Z,46.35
2023-08-07T11:24:51.777Z,46.29
2023-08-07T11:27:18.387Z,46.50
2023-08-07T11:29:49.665Z,46.49
2023-08-07T11:32:16.349Z,46.13
2023-08-07T11:34:50.517Z,45.68
2023-08-07T11:37:18.493Z,45.44
2023-08-07T11:39:45.747Z,45.50
2023-08-07T11:42:12.644Z,45.55
2023-08-07T11:44:39.271Z,45.32
2023-08-07T11:47:06.156Z,45.10
2023-08-07T11:49:33.280Z,45.18
2023-08-07T11:52:00.896Z,45.46
2023-08-07T11:54:27.566Z,45.56
2023-08-07T11:56:54.370Z,45.18
2023-08-07T11:59:21.316Z,45.13
2023-08-07T12:01:48.001Z,45.45
2023-08-07T12:04:14.669Z,45.33
2023-08-07T12:06:55.097Z,44.88
2023-08-07T12:09:22.107Z,45.20
2023-08-07T12:11:48.808Z,45.08
2023-08-07T12:14:18.951Z,45.24
2023-08-07T12:16:48.990Z,45.14
2023-08-07T12:19:17.112Z,44.52
2023-08-07T12:21:44.694Z,44.82
2023-08-07T12:24:11.409Z,44.31
2023-08-07T12:26:38.002Z,44.60
2023-08-07T12:29:04.584Z,44.82
2023-08-07T12:31:31.315Z,45.04
2023-08-07T12:34:35.505Z,44.89
2023-08-07T12:36:44.530Z,44.61
2023-08-07T12:39:11.160Z,44.56
2023-08-07T12:44:07.524Z,44.53
2023-08-07T12:46:36.122Z,44.13
2023-08-07T12:49:04.100Z,44.36
2023-08-07T12:51:30.715Z,44.25
2023-08-07T12:53:57.364Z,44.49
2023-08-07T12:56:23.948Z,44.33
2023-08-07T12:58:51.405Z,44.13
2023-08-07T13:01:18.069Z,44.32
2023-08-07T13:03:47.483Z,44.46
2023-08-07T13:06:15.742Z,44.33
2023-08-07T13:08:42.365Z,44.55
2023-08-07T13:11:09.112Z,44.40
2023-08-07T13:13:35.828Z,44.46
2023-08-07T13:16:04.233Z,44.47
2023-08-07T13:18:30.917Z,44.16
2023-08-07T13:20:57.854Z,44.32
2023-08-07T13:23:24.618Z,43.88
2023-08-07T13:25:51.297Z,44.02
2023-08-07T13:28:19.254Z,44.27
2023-08-07T13:30:46.859Z,44.28
2023-08-07T13:33:13.494Z,44.36
2023-08-07T13:35:40.268Z,44.17
2023-08-07T13:38:08.947Z,44.38
2023-08-07T13:40:36.610Z,44.54
2023-08-07T13:43:08.909Z,44.74
2023-08-07T13:45:36.071Z,44.34
2023-08-07T13:48:03.441Z,44.38
2023-08-07T13:50:30.047Z,44.74
2023-08-07T13:53:08.220Z,44.50
2023-08-07T13:55:41.759Z,44.21
2023-08-07T13:58:08.408Z,44.71
2023-08-07T14:00:36.535Z,44.41
2023-08-07T14:03:03.409Z,44.27
2023-08-07T14:05:30.094Z,44.47
2023-08-07T14:07:59.804Z,44.04
2023-08-07T14:10:26.435Z,44.01
2023-08-07T14:12:53.077Z,43.30
2023-08-07T14:15:19.872Z,43.93
2023-08-07T14:17:46.512Z,44.21
2023-08-07T14:20:13.227Z,43.90
2023-08-07T14:22:40.964Z,43.58
2023-08-07T14:25:07.810Z,43.19
2023-08-07T14:27:34.941Z,43.64
2023-08-07T14:30:01.643Z,43.66
2023-08-07T14:32:28.297Z,43.45
2023-08-07T14:34:54.930Z,43.97
2023-08-07T14:37:21.572Z,43.48
2023-08-07T14:39:48.160Z,43.47
2023-08-07T14:42:14.829Z,43.44
2023-08-07T14:44:41.481Z,43.77
2023-08-07T14:47:08.098Z,43.36
2023-08-07T14:49:34.766Z,43.63
2023-08-07T14:52:01.367Z,43.36
2023-08-07T14:54:28.021Z,43.68
2023-08-07T14:56:54.604Z,43.21
2023-08-07T14:59:21.570Z,42.74
2023-08-07T15:01:48.232Z,43.18
2023-08-07T15:04:15.396Z,43.31
2023-08-07T15:06:43.385Z,43.41
2023-08-07T15:09:12.808Z,43.43
2023-08-07T15:11:41.621Z,43.34
2023-08-07T15:14:10.738Z,43.37
2023-08-07T15:16:38.592Z,42.86
2023-08-07T15:19:05.558Z,43.08
2023-08-07T15:21:32.599Z,43.41
2023-08-07T15:23:59.179Z,43.48
2023-08-07T15:26:26.151Z,43.17
2023-08-07T15:28:52.829Z,42.68
2023-08-07T15:31:19.540Z,43.07
2023-08-07T15:33:50.162Z,43.08
2023-08-07T15:36:17.359Z,43.29
2023-08-07T15:38:44.011Z,43.50
2023-08-07T15:41:13.644Z,43.28
2023-08-07T15:43:40.312Z,43.32
2023-08-07T15:46:07.066Z,43.54
2023-08-07T15:48:33.757Z,43.24
2023-08-07T15:51:00.833Z,43.37
2023-08-07T15:53:27.480Z,42.96
2023-08-07T15:55:54.099Z,43.14
2023-08-07T15:58:22.996Z,43.01
2023-08-07T16:00:49.616Z,43.15
2023-08-07T16:03:16.251Z,43.27
2023-08-07T16:05:42.927Z,43.05
2023-08-07T16:08:09.838Z,43.12
2023-08-07T16:10:39.216Z,43.15
2023-08-07T16:13:05.858Z,42.99
2023-08-07T16:15:32.528Z,42.91
2023-08-07T16:17:59.457Z,43.00
2023-08-07T16:20:26.188Z,42.61
2023-08-07T16:22:52.858Z,42.53
2023-08-07T16:25:19.470Z,42.33
2023-08-07T16:27:46.560Z,42.80
2023-08-07T16:30:13.197Z,42.92
2023-08-07T16:32:40.319Z,42.45
2023-08-07T16:35:09.884Z,42.28
2023-08-07T16:37:36.655Z,42.53
2023-08-07T16:40:03.875Z,42.38
2023-08-07T16:42:30.495Z,42.54
2023-08-07T16:44:57.104Z,42.71
2023-08-07T16:47:23.926Z,42.43
2023-08-07T16:49:51.825Z,42.42
2023-08-07T16:52:18.695Z,42.40
2023-08-07T16:54:46.691Z,42.70
2023-08-07T16:57:14.143Z,42.31
2023-08-07T16:59:40.788Z,42.00
2023-08-07T17:02:08.154Z,42.83
2023-08-07T17:04:36.393Z,42.76
2023-08-07T17:07:05.312Z,42.50
2023-08-07T17:09:31.963Z,42.92
2023-08-07T17:11:58.962Z,41.90
2023-08-07T17:14:26.885Z,41.54
2023-08-07T17:16:53.575Z,42.39
2023-08-07T17:19:22.280Z,42.37
2023-08-07T17:21:49.490Z,41.58
2023-08-07T17:24:16.168Z,41.63
2023-08-07T17:26:42.768Z,42.00
2023-08-07T17:29:09.392Z,42.36
2023-08-07T17:31:36.037Z,41.74
2023-08-07T17:34:02.816Z,42.22
2023-08-07T17:36:29.480Z,41.60
2023-08-07T17:38:56.250Z,42.05
2023-08-07T17:41:23.125Z,42.51
2023-08-07T17:43:49.786Z,42.31
2023-08-07T17:46:17.089Z,41.76
2023-08-07T17:48:45.578Z,41.83
2023-08-07T17:51:13.399Z,41.95
2023-08-07T17:53:40.827Z,42.49
2023-08-07T17:56:07.426Z,42.45
2023-08-07T17:58:34.068Z,42.45
2023-08-07T18:01:00.722Z,42.94
2023-08-07T18:03:28.679Z,42.80
2023-08-07T18:05:55.344Z,42.80
2023-08-07T18:08:22.125Z,42.65
2023-08-07T18:10:48.827Z,43.08
2023-08-07T18:13:15.610Z,42.67
2023-08-07T18:15:42.929Z,43.26
2023-08-07T18:18:09.670Z,42.80
2023-08-07T18:20:37.235Z,42.35
2023-08-07T18:23:04.111Z,43.15
2023-08-07T18:25:30.748Z,43.00
2023-08-07T18:27:57.407Z,42.81
2023-08-07T18:30:24.006Z,43.24
2023-08-07T18:32:52.597Z,43.17
2023-08-07T18:35:20.025Z,43.56
2023-08-07T18:37:46.644Z,43.36
2023-08-07T18:40:13.729Z,43.22
2023-08-07T18:42:40.949Z,43.10
2023-08-07T18:45:08.106Z,43.56
2023-08-07T18:47:34.762Z,43.37
2023-08-07T18:50:01.445Z,43.18
2023-08-07T18:52:28.077Z,43.16
2023-08-07T18:54:57.046Z,42.84
2023-08-07T18:57:23.780Z,42.54
2023-08-07T18:59:51.428Z,42.97
2023-08-07T19:02:18.070Z,42.75
2023-08-07T19:04:44.681Z,43.22
2023-08-07T19:07:11.972Z,43.38
2023-08-07T19:09:38.565Z,42.83
2023-08-07T19:12:05.635Z,42.65
2023-08-07T19:14:34.958Z,42.35
2023-08-07T19:17:02.790Z,42.45
2023-08-07T19:19:32.153Z,42.80
2023-08-07T19:21:59.002Z,42.52
2023-08-07T19:24:25.590Z,42.89
2023-08-07T19:26:52.219Z,42.80
2023-08-07T19:29:18.851Z,43.00
2023-08-07T19:31:45.483Z,43.08
2023-08-07T19:34:12.154Z,43.07
2023-08-07T19:36:41.086Z,43.39
2023-08-07T19:39:08.496Z,43.32
2023-08-07T19:41:36.750Z,43.55
2023-08-07T19:44:04.082Z,43.83
2023-08-07T19:46:30.832Z,43.70
2023-08-07T19:48:57.913Z,43.60
2023-08-07T19:51:24.584Z,43.59
2023-08-07T19:54:01.218Z,43.24
2023-08-07T19:56:30.063Z,43.15
2023-08-07T19:58:57.591Z,43.61
2023-08-07T20:01:24.389Z,43.60
2023-08-07T20:03:51.098Z,43.61
2023-08-07T20:06:17.697Z,43.83
2023-08-07T20:08:44.369Z,44.01
2023-08-07T20:11:11.298Z,43.93
2023-08-07T20:13:37.990Z,44.16
2023-08-07T20:16:06.699Z,44.42
2023-08-07T20:18:33.520Z,44.51
2023-08-07T20:21:00.134Z,43.93
2023-08-07T20:23:28.089Z,44.46
2023-08-07T20:25:55.621Z,44.48
2023-08-07T20:28:22.364Z,44.46
2023-08-07T20:30:48.983Z,44.77
2023-08-07T20:33:15.686Z,44.84
2023-08-07T20:35:42.358Z,44.92
2023-08-07T20:38:08.982Z,45.21
2023-08-07T20:40:35.652Z,45.13
2023-08-07T20:43:03.068Z,45.20
2023-08-07T20:45:29.764Z,45.19
2023-08-07T20:47:56.445Z,45.36
2023-08-07T20:50:23.126Z,45.55
2023-08-07T20:52:49.719Z,45.69
2023-08-07T20:55:16.423Z,45.51
2023-08-07T20:57:43.072Z,45.17
2023-08-07T21:00:10.175Z,45.31
2023-08-07T21:02:36.891Z,45.61
2023-08-07T21:05:03.800Z,44.98
2023-08-07T21:07:30.496Z,45.00
2023-08-07T21:10:00.805Z,45.30
2023-08-07T21:12:28.046Z,45.31
2023-08-07T21:14:54.716Z,45.17
2023-08-07T21:17:23.902Z,44.90
2023-08-07T21:19:50.491Z,45.16
2023-08-07T21:22:17.088Z,44.93
2023-08-07T21:24:43.691Z,44.97
2023-08-07T21:27:12.496Z,44.85
2023-08-07T21:29:39.311Z,44.82
2023-08-07T21:32:07.720Z,44.77
2023-08-07T21:34:34.321Z,44.69
2023-08-07T21:37:00.928Z,44.85
2023-08-07T21:39:27.548Z,44.95
2023-08-07T21:41:54.183Z,44.86
2023-08-07T21:44:20.780Z,44.85
2023-08-07T21:46:49.188Z,44.74
2023-08-07T21:49:15.924Z,45.35
2023-08-07T21:51:42.551Z,44.96
2023-08-07T21:54:09.195Z,45.26
2023-08-07T21:56:35.805Z,45.14
2023-08-07T21:59:02.468Z,45.42
2023-08-07T22:01:29.093Z,45.31
2023-08-07T22:03:55.869Z,45.26
2023-08-07T22:06:22.477Z,45.00
2023-08-07T22:08:49.062Z,45.26
2023-08-07T22:11:15.749Z,45.24
2023-08-07T22:13:44.047Z,45.49
2023-08-07T22:16:10.755Z,45.55
2023-08-07T22:18:37.944Z,45.49
2023-08-07T22:21:04.537Z,45.32
2023-08-07T22:23:31.719Z,45.61
2023-08-07T22:25:58.609Z,45.49
2023-08-07T22:28:25.248Z,45.50
2023-08-07T22:30:52.643Z,45.32
2023-08-07T22:33:19.326Z,45.52
2023-08-07T22:35:46.002Z,45.24
2023-08-07T22:38:12.594Z,45.37
2023-08-07T22:40:39.220Z,45.63
2023-08-07T22:43:05.934Z,45.63
2023-08-07T22:45:32.612Z,45.77
2023-08-07T22:47:59.319Z,45.47
2023-08-07T22:50:25.944Z,45.15
2023-08-07T22:52:52.540Z,45.18
2023-08-07T22:55:19.128Z,45.25
2023-08-07T22:57:45.718Z,45.51
2023-08-07T23:00:13.244Z,45.61
2023-08-07T23:02:40.519Z,45.10
2023-08-07T23:05:09.108Z,45.75
2023-08-07T23:07:35.812Z,45.48
2023-08-07T23:10:02.505Z,45.96
2023-08-07T23:12:29.095Z,45.75
2023-08-07T23:14:56.502Z,46.04
2023-08-07T23:17:23.183Z,46.10
2023-08-07T23:19:49.833Z,45.93
2023-08-07T23:22:16.426Z,45.98
2023-08-07T23:24:43.025Z,46.23
2023-08-07T23:27:09.723Z,46.23
2023-08-07T23:29:39.190Z,46.28
2023-08-07T23:32:07.120Z,46.24
2023-08-07T23:34:33.857Z,46.11
2023-08-07T23:37:00.695Z,46.54
2023-08-07T23:39:27.511Z,45.98
2023-08-07T23:41:54.239Z,46.08
2023-08-07T23:44:21.108Z,46.07
2023-08-07T23:46:47.750Z,46.21
2023-08-07T23:49:14.518Z,46.35
2023-08-07T23:51:41.969Z,46.24
2023-08-07T23:54:08.577Z,46.53
2023-08-07T23:56:35.210Z,46.64
2023-08-07T23:59:01.792Z,46.29
